Time;durP1;ratioP1;P1;durP2;ratioP2;P2;SDS_P1;SDS_P2;PMS_P1;PMS_P2;Temp;Humidity;BMP_temperature;BMP_pressure;BME280_temperature;BME280_humidity;BME280_pressure;Samples;Min_cycle;Max_cycle;Signal;HPM_P1;HPM_P2
2021/04/01 00:02:00;;;;;;;;;;;;;;;6.81;61.99;93466.63;5049673;28;20049;-76
2021/04/01 00:04:28;;;;;;;14.70;6.18;;;;;;;6.77;62.01;93464.63;5049428;28;19932;-76
2021/04/01 00:06:54;;;;;;;11.90;6.18;;;;;;;6.72;62.38;93462.63;5049302;28;20077;-77
2021/04/01 00:09:20;;;;;;;;;;;;;;;6.74;62.18;93462.41;5049738;28;20489;-77
2021/04/01 00:11:46;;;;;;;14.68;6.50;;;;;;;6.71;62.67;93457.69;5049357;28;19959;-76
2021/04/01 00:14:13;;;;;;;12.10;5.70;;;;;;;6.70;62.42;93453.56;5049377;28;20095;-76
2021/04/01 00:16:39;;;;;;;10.10;5.45;;;;;;;6.66;63.01;93453.91;5049176;28;20439;-76
2021/04/01 00:19:06;;;;;;;11.60;5.90;;;;;;;6.72;63.21;93456.72;5049209;28;20045;-77
2021/04/01 00:21:33;;;;;;;8.75;4.95;;;;;;;6.71;63.77;93453.34;5049314;28;20052;-76
2021/04/01 00:23:59;;;;;;;12.43;6.47;;;;;;;6.70;64.66;93449.22;5048971;28;20049;-76
2021/04/01 00:26:25;;;;;;;;;;;;;;;6.70;64.88;93451.00;5049496;28;20484;-77
2021/04/01 00:28:52;;;;;;;16.27;5.40;;;;;;;6.61;65.20;93448.53;5049405;28;19925;-77
2021/04/01 00:31:18;;;;;;;;;;;;;;;6.61;65.68;93440.09;5067117;28;20051;-77
2021/04/01 00:33:44;;;;;;;14.02;6.25;;;;;;;6.45;65.80;93431.69;5064081;28;19920;-77
2021/04/01 00:36:10;;;;;;;;;;;;;;;6.50;65.46;93442.13;5054549;28;20045;-76
2021/04/01 00:38:37;;;;;;;10.38;5.35;;;;;;;6.49;65.44;93442.31;5069186;28;19943;-77
2021/04/01 00:41:04;;;;;;;13.93;5.40;;;;;;;6.46;65.74;93446.00;5068660;28;20056;-77
2021/04/01 00:43:30;;;;;;;;;;;;;;;6.47;65.87;93431.50;5060425;28;20045;-77
2021/04/01 00:45:56;;;;;;;11.05;5.78;;;;;;;6.44;66.18;93434.41;5051549;28;20011;-77
2021/04/01 00:48:22;;;;;;;;;;;;;;;6.43;65.48;93427.72;5053420;28;20056;-77
2021/04/01 00:50:48;;;;;;;13.35;5.85;;;;;;;6.35;65.92;93418.41;5053205;28;19924;-77
2021/04/01 00:53:14;;;;;;;;;;;;;;;6.38;66.20;93420.56;5053252;28;20045;-77
2021/04/01 00:55:42;;;;;;;18.08;6.95;;;;;;;6.32;66.86;93418.75;5052915;28;19978;-76
2021/04/01 00:58:08;;;;;;;13.60;6.40;;;;;;;6.33;67.20;93413.47;5052564;28;20522;-76
2021/04/01 01:00:35;;;;;;;;;;;;;;;6.33;67.67;93408.38;5053519;28;20060;-76
2021/04/01 01:03:02;;;;;;;12.05;5.13;;;;;;;6.33;67.66;93405.00;5052445;28;19970;-76
2021/04/01 01:05:30;;;;;;;14.98;6.28;;;;;;;6.35;67.07;93400.53;5052286;28;20497;-76
2021/04/01 01:07:57;;;;;;;16.50;5.60;;;;;;;6.35;67.76;93396.22;5052859;28;20056;-76
2021/04/01 01:10:28;;;;;;;10.88;6.72;;;;;;;6.30;67.85;93392.63;5052342;28;20055;-76
2021/04/01 01:12:56;;;;;;;13.75;6.22;;;;;;;6.24;68.14;93377.06;5052386;28;20056;-76
2021/04/01 01:15:23;;;;;;;15.48;6.65;;;;;;;6.26;67.66;93376.88;5052257;28;20063;-76
2021/04/01 01:17:50;;;;;;;11.20;5.68;;;;;;;6.27;67.83;93389.47;5052442;28;20052;-76
2021/04/01 01:20:17;;;;;;;14.75;7.70;;;;;;;6.26;68.41;93382.00;5052373;28;20394;-76
2021/04/01 01:22:47;;;;;;;8.43;4.80;;;;;;;6.26;68.52;93384.53;5052175;28;20045;-76
2021/04/01 01:25:15;;;;;;;10.32;5.18;;;;;;;6.22;68.66;93378.22;5052139;28;20488;-76
2021/04/01 01:27:42;;;;;;;9.38;5.22;;;;;;;6.24;67.93;93377.06;5052360;28;20049;-76
2021/04/01 01:30:10;;;;;;;;;;;;;;;6.23;68.80;93374.69;5052516;28;20045;-76
2021/04/01 01:32:38;;;;;;;11.00;5.32;;;;;;;6.19;68.27;93373.44;5052310;28;19928;-76
2021/04/01 01:35:14;;;;;;;8.80;5.45;;;;;;;6.14;69.21;93368.91;5051918;28;20492;-77
2021/04/01 01:37:46;;;;;;;12.75;4.82;;;;;;;6.18;68.43;93367.56;5051965;28;20569;-77
2021/04/01 01:40:14;;;;;;;16.63;5.63;;;;;;;6.24;69.07;93377.06;5051753;28;20049;-76
2021/04/01 01:42:40;;;;;;;8.13;4.78;;;;;;;6.23;69.03;93369.59;5052365;28;20107;-76
2021/04/01 01:45:08;;;;;;;10.18;5.40;;;;;;;6.25;68.44;93372.75;5051986;28;20082;-76
2021/04/01 01:47:34;;;;;;;10.63;5.18;;;;;;;6.18;69.01;93352.28;5051978;28;20045;-76
2021/04/01 01:50:00;;;;;;;;;;;;;;;6.28;69.57;93363.00;5052398;28;20447;-76
2021/04/01 01:52:27;;;;;;;8.93;5.97;;;;;;;6.24;69.73;93355.84;5051856;28;19925;-77
2021/04/01 01:54:53;;;;;;;;;;;;;;;6.24;69.80;93361.75;5052190;28;20053;-76
2021/04/01 01:57:20;;;;;;;10.77;5.25;;;;;;;6.21;68.93;93353.69;5050797;28;19924;-77
2021/04/01 01:59:46;;;;;;;9.68;5.57;;;;;;;6.07;69.09;93329.78;5051746;28;20546;-77
2021/04/01 02:02:12;;;;;;;;;;;;;;;6.18;69.31;93343.81;5052067;28;20057;-76
2021/04/01 02:04:38;;;;;;;7.47;4.95;;;;;;;6.07;69.24;93340.75;5051616;28;19931;-76
2021/04/01 02:07:05;;;;;;;;;;;;;;;6.07;69.30;93337.44;5051830;28;20045;-76
2021/04/01 02:09:31;;;;;;;8.57;5.25;;;;;;;5.87;68.53;93315.78;5051046;28;19932;-76
2021/04/01 02:11:57;;;;;;;;;;;;;;;6.00;68.92;93342.41;5051664;28;20051;-75
2021/04/01 02:14:24;;;;;;;7.38;4.28;;;;;;;5.96;69.76;93336.06;5051467;28;20284;-75
2021/04/01 02:16:51;;;;;;;9.00;4.65;;;;;;;5.93;69.72;93332.13;5051378;28;20056;-75
2021/04/01 02:19:17;;;;;;;;;;;;;;;5.99;69.78;93323.00;5051909;28;20048;-75
2021/04/01 02:21:43;;;;;;;9.40;4.63;;;;;;;5.98;69.94;93329.84;5051057;28;19928;-75
2021/04/01 02:24:09;;;;;;;;;;;;;;;5.98;69.85;93327.28;5051444;28;20052;-75
2021/04/01 02:26:36;;;;;;;11.30;4.93;;;;;;;5.93;69.40;93321.94;5051140;28;19921;-76
2021/04/01 02:29:02;;;;;;;9.88;4.72;;;;;;;5.52;69.44;93258.69;5050509;28;20504;-76
2021/04/01 02:31:30;;;;;;;12.60;5.68;;;;;;;5.95;69.09;93326.84;5050763;28;20055;-77
2021/04/01 02:33:56;;;;;;;10.60;5.25;;;;;;;5.33;69.71;93243.00;5050581;28;20045;-76
2021/04/01 02:36:23;;;;;;;14.52;5.80;;;;;;;5.53;69.95;93290.84;5051166;28;20134;-77
2021/04/01 02:38:49;;;;;;;9.13;5.07;;;;;;;5.74;70.07;93331.72;5050631;28;20075;-76
2021/04/01 02:41:17;;;;;;;15.02;7.22;;;;;;;5.72;70.21;93323.47;5050691;28;20080;-76
2021/04/01 02:43:44;;;;;;;11.35;6.13;;;;;;;5.37;70.23;93272.22;5050682;28;20451;-77
2021/04/01 02:46:12;;;;;;;;;;;;;;;5.73;70.08;93336.97;5050884;28;20416;-76
2021/04/01 02:48:39;;;;;;;8.85;5.40;;;;;;;5.16;70.53;93262.75;5050311;28;20403;-78
2021/04/01 02:51:06;;;;;;;11.38;7.07;;;;;;;5.29;71.52;93283.31;5050936;28;20049;-77
2021/04/01 02:53:32;;;;;;;10.45;6.72;;;;;;;5.47;71.22;93308.41;5050585;28;20041;-77
2021/04/01 02:55:59;;;;;;;13.95;7.10;;;;;;;5.61;71.44;93319.56;5050483;28;20420;-77
2021/04/01 02:58:26;;;;;;;14.60;5.90;;;;;;;5.40;70.63;93278.72;5047935;28;20045;-77
2021/04/01 03:00:55;;;;;;;13.73;6.75;;;;;;;5.68;70.99;93322.22;5048107;28;20514;-78
2021/04/01 03:03:26;;;;;;;14.25;6.95;;;;;;;5.67;71.27;93318.09;5048947;28;20571;-77
2021/04/01 03:05:57;;;;;;;14.57;7.43;;;;;;;5.81;71.34;93343.75;5050088;28;20045;-77
2021/04/01 03:08:23;;;;;;;13.05;5.90;;;;;;;5.44;70.76;93290.16;5049683;28;20493;-77
2021/04/01 03:10:52;;;;;;;15.48;8.10;;;;;;;5.77;71.56;93333.13;5049835;28;20056;-77
2021/04/01 03:13:19;;;;;;;18.38;7.43;;;;;;;5.75;71.39;93327.41;5049760;28;20041;-76
2021/04/01 03:15:45;;;;;;;;;;;;;;;5.82;71.68;93341.03;5050244;28;20135;-77
2021/04/01 03:18:11;;;;;;;16.95;5.28;;;;;;;5.76;72.56;93336.63;5049807;28;19928;-77
2021/04/01 03:20:38;;;;;;;10.38;4.93;;;;;;;5.72;72.29;93340.50;5049758;28;20064;-76
2021/04/01 03:23:05;;;;;;;16.13;5.28;;;;;;;5.71;73.19;93344.81;5049819;28;20044;-76
2021/04/01 03:25:32;;;;;;;16.55;5.65;;;;;;;5.73;73.04;93340.31;5050112;28;20056;-76
2021/04/01 03:27:58;;;;;;;13.25;6.15;;;;;;;5.66;73.21;93331.00;5049876;28;20068;-76
2021/04/01 03:30:25;;;;;;;13.10;6.25;;;;;;;5.61;73.39;93318.81;5049356;28;20060;-76
2021/04/01 03:32:51;;;;;;;19.33;7.75;;;;;;;5.72;72.88;93336.19;5049647;28;20575;-76
2021/04/01 03:35:22;;;;;;;9.85;5.80;;;;;;;5.70;72.75;93335.56;5049494;28;20049;-76
2021/04/01 03:37:51;;;;;;;18.25;6.07;;;;;;;5.63;72.94;93314.31;5049205;28;20412;-76
2021/04/01 03:40:19;;;;;;;14.52;6.20;;;;;;;5.50;72.87;93303.97;5049309;28;20486;-76
2021/04/01 03:42:45;;;;;;;15.50;5.93;;;;;;;5.67;73.59;93325.75;5049644;28;20404;-76
2021/04/01 03:45:12;;;;;;;;;;;;;;;5.67;73.61;93330.84;5050245;28;20060;-76
2021/04/01 03:47:40;;;;;;;13.57;6.25;;;;;;;5.32;73.88;93275.31;5049856;28;19954;-76
2021/04/01 03:50:08;;;;;;;10.93;5.43;;;;;;;5.57;73.71;93315.03;5049501;28;20049;-76
2021/04/01 03:52:34;;;;;;;11.90;5.55;;;;;;;5.40;73.17;93289.72;5049521;28;20045;-76
2021/04/01 03:55:32;;;;;;;12.68;4.63;;;;;;;5.59;72.06;93316.44;5049258;28;20524;-76
2021/04/01 03:58:02;;;;;;;11.43;5.18;;;;;;;5.35;71.72;93287.69;5049317;28;20107;-76
2021/04/01 04:00:31;;;;;;;12.30;5.80;;;;;;;5.60;72.15;93318.00;5048805;28;20571;-76
2021/04/01 04:03:05;;;;;;;10.82;5.10;;;;;;;5.60;71.62;93315.44;5049026;28;20492;-76
2021/04/01 04:05:41;;;;;;;8.55;5.00;;;;;;;5.55;71.80;93314.41;5049061;28;20057;-76
2021/04/01 04:11:05;;;;;;;12.55;6.88;;;;;;;5.19;72.41;93275.13;5046839;28;20522;-76
2021/04/01 04:13:33;;;;;;;11.65;6.25;;;;;;;5.49;72.72;93313.34;5049356;28;20044;-77
2021/04/01 04:16:00;;;;;;;12.95;5.80;;;;;;;5.43;72.14;93304.66;5049385;28;20404;-76
2021/04/01 04:18:26;;;;;;;17.08;7.55;;;;;;;5.51;72.44;93319.03;5049350;28;20154;-76
2021/04/01 04:20:53;;;;;;;9.00;5.07;;;;;;;5.53;71.68;93311.22;5048765;28;20057;-76
2021/04/01 04:23:20;;;;;;;;;;;;;;;5.52;72.39;93322.41;5049739;28;20122;-76
2021/04/01 04:25:46;;;;;;;10.75;4.88;;;;;;;5.47;73.58;93315.28;5049592;28;19928;-76
2021/04/01 04:28:31;;;;;;;9.70;4.63;;;;;;;5.48;72.96;93315.09;5049148;28;20045;-77
2021/04/01 04:30:57;;;;;;;10.20;4.60;;;;;;;5.45;74.23;93314.66;5048990;28;20053;-76
2021/04/01 04:33:23;;;;;;;;;;;;;;;5.45;74.90;93320.56;5049399;28;20047;-76
2021/04/01 04:35:49;;;;;;;15.57;6.63;;;;;;;5.45;74.66;93318.00;5049043;28;19922;-76
2021/04/01 04:38:16;;;;;;;;;;;;;;;5.47;74.75;93317.84;5049232;28;20053;-76
2021/04/01 04:40:42;;;;;;;10.40;5.45;;;;;;;5.44;73.73;93318.16;5049395;28;20023;-76
2021/04/01 04:43:08;;;;;;;11.68;6.15;;;;;;;5.41;73.61;93309.13;5048746;28;20049;-76
2021/04/01 04:45:35;;;;;;;;;;;;;;;5.43;74.18;93314.06;5049577;28;20060;-76
2021/04/01 04:48:02;;;;;;;9.35;6.22;;;;;;;5.40;74.38;93316.94;5049115;28;20334;-76
2021/04/01 04:50:28;;;;;;;13.10;6.88;;;;;;;5.45;75.25;93320.56;5049186;28;20049;-76
2021/04/01 04:52:54;;;;;;;;;;;;;;;5.52;74.36;93319.84;5049546;28;20045;-77
2021/04/01 04:55:20;;;;;;;25.52;6.80;;;;;;;5.51;74.50;93318.28;5048984;28;19967;-76
2021/04/01 04:57:49;;;;;;;14.85;6.82;;;;;;;5.58;74.16;93324.25;5048721;28;20794;-76
2021/04/01 05:05:49;;;;;;;;;;;;;;;5.81;71.38;93328.44;5049035;28;20072;-76
2021/04/01 05:08:17;;;;;;;44.78;11.43;;;;;;;5.87;69.67;93326.00;5049230;28;19925;-76
2021/04/01 05:10:43;;;;;;;16.50;7.15;;;;;;;6.04;68.65;93328.38;5048596;28;20103;-76
2021/04/01 05:13:10;;;;;;;;;;;;;;;6.17;69.67;93329.50;5048949;28;20041;-76
2021/04/01 05:15:40;;;;;;;30.65;13.82;;;;;;;6.24;69.92;93328.59;5048780;28;19924;-76
2021/04/01 05:18:22;;;;;;;29.00;12.52;;;;;;;6.34;69.01;93335.19;5048640;28;20575;-76
2021/04/01 05:20:49;;;;;;;26.05;11.07;;;;;;;6.40;68.89;93330.13;5048591;28;20053;-76
2021/04/01 05:23:32;;;;;;;18.58;8.60;;;;;;;6.50;68.14;93334.97;5048719;28;20095;-76
2021/04/01 05:28:47;;;;;;;15.73;8.45;;;;;;;6.72;67.91;93344.38;5022412;28;20117;-76
2021/04/01 05:31:13;;;;;;;26.60;10.65;;;;;;;6.78;67.73;93336.00;5048745;28;20068;-76
2021/04/01 05:33:44;;;;;;;24.70;12.15;;;;;;;6.79;69.28;93342.66;5051974;28;20049;-76
2021/04/01 05:36:13;;;;;;;28.77;10.15;;;;;;;6.84;69.12;93344.69;5051629;28;20041;-77
2021/04/01 05:38:40;;;;;;;17.52;7.75;;;;;;;6.89;65.60;93350.81;5052242;28;20056;-76
2021/04/01 05:41:08;;;;;;;24.10;7.72;;;;;;;6.93;63.48;93349.50;5052031;28;20048;-77
2021/04/01 05:43:38;;;;;;;10.77;5.15;;;;;;;6.95;63.50;93344.97;5052143;28;20048;-76
2021/04/01 05:46:12;;;;;;;9.10;4.95;;;;;;;7.17;63.74;93357.72;5052034;28;20045;-76
2021/04/01 05:48:52;;;;;;;8.70;5.30;;;;;;;7.17;62.31;93362.84;5052035;28;20048;-76
2021/04/01 05:51:36;;;;;;;7.63;4.70;;;;;;;7.11;58.42;93360.22;5049604;28;20094;-76
2021/04/01 05:57:26;;;;;;;9.35;3.13;;;;;;;7.25;55.68;93366.22;5048550;28;20055;-76
2021/04/01 06:03:02;;;;;;;5.47;3.22;;;;;;;7.75;54.68;93354.19;5048483;28;20479;-76
2021/04/01 06:05:31;;;;;;;5.80;4.03;;;;;;;8.05;54.55;93353.13;5050927;28;20436;-76
2021/04/01 06:08:07;;;;;;;8.23;3.58;;;;;;;8.20;52.94;93367.59;5051223;28;20045;-76
2021/04/01 06:10:34;;;;;;;6.95;4.03;;;;;;;8.35;53.49;93362.31;5051362;28;20084;-77
2021/04/01 06:13:03;;;;;;;7.43;3.75;;;;;;;8.47;53.45;93349.75;5051218;28;20056;-77
2021/04/01 06:15:34;;;;;;;7.28;3.95;;;;;;;8.73;52.36;93363.63;5051243;28;20970;-77
2021/04/01 06:18:07;;;;;;;11.52;4.38;;;;;;;8.95;51.53;93371.94;5051453;28;20049;-77
2021/04/01 06:20:36;;;;;;;10.40;3.80;;;;;;;8.87;51.21;93375.47;5050971;28;20424;-77
2021/04/01 06:23:03;;;;;;;7.20;4.07;;;;;;;8.63;51.83;93369.94;5051186;28;20043;-76
2021/04/01 06:25:34;;;;;;;7.88;3.67;;;;;;;8.37;52.26;93368.81;5050713;28;20037;-76
2021/04/01 06:28:03;;;;;;;7.25;4.93;;;;;;;8.51;52.21;93373.97;5051237;28;20048;-76
2021/04/01 06:30:34;;;;;;;7.88;3.70;;;;;;;8.54;52.86;93368.50;5050607;28;20048;-75
2021/04/01 06:33:04;;;;;;;5.40;3.40;;;;;;;8.88;51.63;93378.84;5051194;28;20128;-75
2021/04/01 06:35:32;;;;;;;9.60;4.68;;;;;;;9.39;50.50;93364.66;5050685;28;20052;-75
2021/04/01 06:38:20;;;;;;;6.95;3.78;;;;;;;9.79;50.11;93373.31;5051080;28;20052;-76
2021/04/01 06:40:49;;;;;;;7.45;4.35;;;;;;;9.81;51.21;93377.25;5050588;28;20052;-76
2021/04/01 06:43:45;;;;;;;6.93;4.47;;;;;;;9.86;50.65;93379.22;5050333;28;20041;-75
2021/04/01 06:46:15;;;;;;;10.63;4.38;;;;;;;9.79;51.52;93383.56;5050365;28;20049;-75
2021/04/01 06:49:05;;;;;;;8.23;4.47;;;;;;;9.81;51.26;93373.91;5050767;28;20144;-75
2021/04/01 06:51:47;;;;;;;6.97;3.47;;;;;;;10.01;50.36;93377.19;5050032;28;20068;-76
2021/04/01 06:54:23;;;;;;;9.30;3.88;;;;;;;10.04;51.29;93373.44;5050400;28;20056;-77
2021/04/01 06:56:54;;;;;;;;;;;;;;;10.36;50.01;93385.56;5050678;28;20049;-77
2021/04/01 06:59:34;;;;;;;7.22;4.72;;;;;;;9.98;51.27;93384.50;5050509;28;19931;-79
2021/04/01 07:02:13;;;;;;;9.32;4.82;;;;;;;10.05;50.52;93357.06;5050388;28;20085;-78
2021/04/01 07:04:41;;;;;;;9.93;5.68;;;;;;;10.06;53.67;93384.31;5050582;28;20127;-78
2021/04/01 07:07:13;;;;;;;8.40;4.95;;;;;;;9.99;54.28;93384.31;5050371;28;20347;-77
2021/04/01 07:09:56;;;;;;;9.43;5.05;;;;;;;10.09;54.06;93380.56;5050361;28;20086;-77
2021/04/01 07:12:28;;;;;;;8.65;5.00;;;;;;;10.28;54.58;93382.25;5050279;28;20500;-78
2021/04/01 07:15:01;;;;;;;10.25;5.13;;;;;;;10.52;53.38;93379.22;5050355;28;20060;-77
2021/04/01 07:17:32;;;;;;;11.40;7.25;;;;;;;10.26;54.55;93386.00;5050419;28;20049;-77
2021/04/01 07:48:13;;;;;;;7.85;4.63;;;;;;;10.64;54.74;93402.50;5027007;28;20509;-78
2021/04/01 07:50:42;;;;;;;10.75;5.63;;;;;;;10.61;53.97;93413.19;5044859;28;20079;-78
2021/04/01 07:53:11;;;;;;;9.55;4.03;;;;;;;10.94;53.16;93409.66;5049534;28;20086;-78
2021/04/01 07:55:56;;;;;;;10.40;4.38;;;;;;;11.44;51.75;93429.50;5048979;28;20053;-78
2021/04/01 07:58:48;;;;;;;;;;;;;;;11.36;52.19;93416.91;5050124;28;20080;-78
2021/04/01 08:01:29;;;;;;;7.07;3.78;;;;;;;11.49;51.73;93406.50;5049569;28;19932;-78
2021/04/01 08:03:58;;;;;;;8.40;5.07;;;;;;;11.36;51.69;93419.47;5049588;28;20077;-77
2021/04/01 08:06:26;;;;;;;6.60;4.25;;;;;;;11.29;51.70;93416.94;5049535;28;20053;-78
2021/04/01 08:08:58;;;;;;;9.43;4.38;;;;;;;11.44;51.09;93431.28;5049211;28;20076;-78
2021/04/01 08:11:29;;;;;;;13.18;6.43;;;;;;;11.40;52.98;93415.50;5046625;28;20558;-78
2021/04/01 08:14:07;;;;;;;10.18;5.18;;;;;;;11.71;50.90;93413.84;5047485;28;20139;-78
2021/04/01 08:16:38;;;;;;;7.68;3.97;;;;;;;12.10;50.10;93400.88;5048414;28;20412;-79
2021/04/01 08:19:06;;;;;;;9.77;4.22;;;;;;;11.72;51.45;93404.34;5049250;28;20111;-79
2021/04/01 08:21:34;;;;;;;5.90;3.08;;;;;;;11.61;51.60;93398.91;5048819;28;20488;-79
2021/04/01 08:24:04;;;;;;;8.50;4.47;;;;;;;11.43;50.54;93409.91;5049425;28;20077;-79
2021/04/01 08:26:43;;;;;;;8.05;4.25;;;;;;;11.08;53.00;93382.84;5048925;28;20041;-81
2021/04/01 08:29:47;;;;;;;9.35;4.13;;;;;;;11.07;53.13;93398.50;5048930;28;20048;-81
2021/04/01 08:32:30;;;;;;;7.07;4.40;;;;;;;10.89;52.99;93384.59;5048991;28;20041;-79
2021/04/01 08:35:00;;;;;;;7.18;4.03;;;;;;;11.01;53.52;93383.91;5048752;28;20524;-79
2021/04/01 08:37:32;;;;;;;9.82;3.75;;;;;;;10.95;53.69;93376.03;5066794;28;20040;-79
2021/04/01 08:40:00;;;;;;;8.93;3.72;;;;;;;11.26;52.47;93386.53;5068761;28;20488;-79
2021/04/01 08:42:44;;;;;;;7.03;3.97;;;;;;;11.45;51.46;93382.22;5068971;28;20111;-79
2021/04/01 08:45:29;;;;;;;4.80;2.92;;;;;;;11.65;51.68;93390.75;5068548;28;20053;-79
2021/04/01 08:48:38;;;;;;;5.88;3.08;;;;;;;11.47;52.25;93382.00;5069144;28;20468;-80
2021/04/01 08:51:25;;;;;;;6.95;4.13;;;;;;;12.14;51.72;93371.09;5063547;28;20044;-79
2021/04/01 08:53:59;;;;;;;5.55;3.17;;;;;;;12.69;47.82;93402.97;5068541;28;20105;-80
2021/04/01 08:56:34;;;;;;;5.75;3.35;;;;;;;12.25;48.34;93373.94;5068486;28;20074;-80
2021/04/01 08:59:04;;;;;;;9.38;4.55;;;;;;;12.28;49.14;93407.00;5068889;28;20052;-80
2021/04/01 09:01:35;;;;;;;5.40;3.50;;;;;;;12.43;48.92;93391.19;5068327;28;20048;-80
2021/04/01 09:04:02;;;;;;;6.35;3.42;;;;;;;13.00;47.51;93394.44;5068838;28;20045;-79
2021/04/01 09:06:37;;;;;;;6.55;3.45;;;;;;;13.00;47.07;93404.75;5069843;28;20044;-80
2021/04/01 09:09:09;;;;;;;7.80;4.28;;;;;;;12.73;46.33;93393.00;5072414;28;20074;-80
2021/04/01 09:11:41;;;;;;;5.68;3.00;;;;;;;12.99;47.03;93400.59;5072041;28;20449;-79
2021/04/01 09:14:17;;;;;;;5.45;2.97;;;;;;;13.04;46.68;93391.22;5072425;28;20096;-80
2021/04/01 09:16:57;;;;;;;5.70;2.92;;;;;;;12.68;47.08;93378.19;5072114;28;20094;-80
2021/04/01 09:19:28;;;;;;;6.78;3.20;;;;;;;12.54;46.90;93374.19;5072361;28;20075;-81
2021/04/01 09:21:55;;;;;;;4.80;2.72;;;;;;;12.19;47.07;93370.47;5072315;28;20098;-80
2021/04/01 09:24:28;;;;;;;6.15;2.67;;;;;;;12.55;47.15;93358.53;5072376;28;20044;-81
2021/04/01 09:26:55;;;;;;;5.25;2.80;;;;;;;12.33;47.35;93373.66;5072444;28;20056;-80
2021/04/01 09:29:22;;;;;;;5.75;3.53;;;;;;;12.66;47.57;93356.22;5071832;28;20044;-80
2021/04/01 09:31:58;;;;;;;5.07;3.15;;;;;;;12.79;46.51;93350.91;5071758;28;20101;-79
2021/04/01 09:34:25;;;;;;;7.68;3.25;;;;;;;12.76;46.07;93347.97;5071867;28;20098;-79
2021/04/01 09:36:53;;;;;;;5.03;3.13;;;;;;;12.61;45.98;93374.13;5072056;28;20110;-79
2021/04/01 09:39:31;;;;;;;5.25;3.15;;;;;;;12.68;46.06;93362.72;5072206;28;20049;-79
2021/04/01 09:42:04;;;;;;;4.30;2.58;;;;;;;13.00;45.06;93368.66;5072128;28;20063;-79
2021/04/01 09:44:30;;;;;;;8.65;3.88;;;;;;;13.41;45.38;93361.88;5071846;28;20403;-78
2021/04/01 09:47:03;;;;;;;6.70;2.97;;;;;;;13.79;43.04;93361.72;5072032;28;20041;-79
2021/04/01 09:49:36;;;;;;;5.50;3.33;;;;;;;13.12;42.78;93354.00;5071833;28;20075;-80
2021/04/01 09:52:04;;;;;;;5.38;3.17;;;;;;;13.30;43.08;93360.09;5071669;28;20504;-80
2021/04/01 09:54:32;;;;;;;4.32;2.67;;;;;;;13.32;43.26;93368.38;5071669;28;20060;-79
2021/04/01 09:57:00;;;;;;;5.15;2.78;;;;;;;13.34;43.30;93361.22;5071685;28;20053;-79
2021/04/01 09:59:44;;;;;;;5.03;3.20;;;;;;;13.85;42.03;93343.50;5071612;28;20094;-79
2021/04/01 10:02:24;;;;;;;5.00;2.53;;;;;;;14.56;42.01;93349.53;5071150;28;20059;-79
2021/04/01 10:04:56;;;;;;;5.25;3.13;;;;;;;14.21;41.45;93340.84;5071402;28;20044;-79
2021/04/01 10:07:26;;;;;;;4.00;2.63;;;;;;;14.27;40.34;93334.00;5071705;28;20063;-80
2021/04/01 10:09:53;;;;;;;4.53;2.35;;;;;;;14.11;39.64;93325.16;5071538;28;20052;-79
2021/04/01 10:12:20;;;;;;;6.97;3.78;;;;;;;14.30;40.26;93321.41;5071273;28;20044;-79
2021/04/01 10:14:52;;;;;;;5.93;2.90;;;;;;;14.46;39.70;93319.13;5071581;28;20450;-80
2021/04/01 10:17:23;;;;;;;3.58;2.45;;;;;;;14.49;39.00;93326.38;5070837;28;20045;-79
2021/04/01 10:19:54;;;;;;;5.75;2.50;;;;;;;14.06;39.86;93314.75;5071296;28;20393;-79
2021/04/01 10:22:24;;;;;;;5.07;3.20;;;;;;;14.39;37.89;93318.44;5071132;28;20052;-80
2021/04/01 10:25:10;;;;;;;6.25;3.15;;;;;;;14.22;39.16;93313.22;5071167;28;20453;-80
2021/04/01 10:27:43;;;;;;;4.53;2.72;;;;;;;14.36;38.57;93311.97;5071220;28;20547;-80
2021/04/01 10:30:11;;;;;;;6.93;1.95;;;;;;;14.50;37.20;93298.75;5070690;28;20072;-80
2021/04/01 10:32:41;;;;;;;6.78;2.42;;;;;;;14.49;37.17;93305.72;5070982;28;20049;-80
2021/04/01 10:35:12;;;;;;;7.93;2.72;;;;;;;14.52;38.11;93300.09;5061798;28;20511;-80
2021/04/01 10:37:47;;;;;;;5.00;2.90;;;;;;;14.64;38.53;93300.06;5048881;28;20049;-79
2021/04/01 10:40:15;;;;;;;6.07;2.58;;;;;;;14.90;37.00;93289.38;5050218;28;20053;-79
2021/04/01 10:42:47;;;;;;;5.60;2.65;;;;;;;14.75;36.57;93290.69;5050970;28;20481;-79
2021/04/01 10:45:17;;;;;;;6.88;3.55;;;;;;;14.30;37.19;93282.66;5031393;28;20427;-79
2021/04/01 10:47:53;;;;;;;5.97;2.67;;;;;;;14.87;37.63;93292.41;5050721;28;20509;-79
2021/04/01 10:50:20;;;;;;;;;;;;;;;14.87;35.20;93298.38;5050976;28;20065;-80
2021/04/01 10:52:46;;;;;;;4.05;2.28;;;;;;;14.43;34.32;93296.31;5050671;28;20388;-80
2021/04/01 10:55:14;;;;;;;3.53;1.83;;;;;;;14.79;35.39;93288.41;5050530;28;20083;-79
2021/04/01 10:57:41;;;;;;;6.38;2.40;;;;;;;15.29;35.52;93281.69;5050693;28;20451;-79
2021/04/01 11:00:10;;;;;;;3.33;1.80;;;;;;;15.47;32.20;93280.63;5050485;28;20133;-79
2021/04/01 11:02:39;;;;;;;4.63;2.13;;;;;;;15.45;34.05;93285.25;5050653;28;20048;-80
2021/04/01 11:05:09;;;;;;;4.07;2.05;;;;;;;14.99;32.73;93276.84;5050374;28;20045;-79
2021/04/01 11:07:45;;;;;;;4.25;2.20;;;;;;;15.42;32.38;93269.44;5050454;28;20412;-79
2021/04/01 11:10:19;;;;;;;6.38;2.35;;;;;;;15.50;32.70;93251.69;5049960;28;20052;-79
2021/04/01 11:12:49;;;;;;;4.38;2.22;;;;;;;15.23;33.22;93264.53;5050203;28;20416;-80
2021/04/01 11:15:17;;;;;;;5.15;2.80;;;;;;;15.58;33.05;93247.09;5050273;28;20044;-79
2021/04/01 11:17:47;;;;;;;2.92;1.80;;;;;;;15.26;32.81;93245.91;5050036;28;20048;-79
2021/04/01 11:20:17;;;;;;;4.45;2.00;;;;;;;14.74;32.75;93245.13;5050238;28;20049;-80
2021/04/01 11:23:06;;;;;;;7.50;2.60;;;;;;;15.17;34.22;93232.59;5049930;28;20045;-79
2021/04/01 11:25:34;;;;;;;5.00;2.83;;;;;;;14.97;33.22;93246.03;5050412;28;20045;-79
2021/04/01 11:28:00;;;;;;;4.18;1.92;;;;;;;15.19;34.32;93224.59;5049981;28;20056;-78
2021/04/01 11:30:41;;;;;;;5.22;2.30;;;;;;;15.29;33.85;93242.06;5049826;28;20056;-78
2021/04/01 11:33:08;;;;;;;5.20;2.45;;;;;;;15.22;32.50;93235.25;5049733;28;20052;-79
2021/04/01 11:35:39;;;;;;;4.47;2.30;;;;;;;15.73;33.22;93229.19;5053043;28;20044;-78
2021/04/01 11:38:09;;;;;;;3.47;2.10;;;;;;;15.76;32.94;93220.16;5059289;28;20093;-79
2021/04/01 11:40:37;;;;;;;5.10;1.52;;;;;;;15.83;30.77;93233.69;5066482;28;20085;-79
2021/04/01 11:43:03;;;;;;;4.07;1.88;;;;;;;15.73;32.53;93226.59;5069486;28;20063;-79
2021/04/01 11:45:32;;;;;;;3.67;2.15;;;;;;;16.02;31.38;93239.38;5069413;28;20048;-79
2021/04/01 11:47:59;;;;;;;4.22;1.67;;;;;;;16.01;29.93;93217.09;5064038;28;20044;-78
2021/04/01 11:50:27;;;;;;;2.35;1.63;;;;;;;15.82;31.24;93214.00;5069325;28;20059;-78
2021/04/01 11:52:56;;;;;;;3.67;1.65;;;;;;;15.89;30.50;93211.22;5069695;28;20049;-78
2021/04/01 11:55:23;;;;;;;2.95;1.70;;;;;;;15.94;30.92;93206.13;5069562;28;20060;-77
2021/04/01 11:57:49;;;;;;;3.33;1.63;;;;;;;15.86;30.15;93207.31;5069536;28;20412;-78
2021/04/01 12:00:21;;;;;;;2.72;1.83;;;;;;;15.72;31.07;93208.69;5069285;28;20518;-78
2021/04/01 12:02:52;;;;;;;3.40;2.10;;;;;;;16.08;31.69;93206.53;5069270;28;20135;-79
2021/04/01 12:05:19;;;;;;;4.50;2.28;;;;;;;16.41;30.59;93196.22;5069652;28;20044;-78
2021/04/01 12:07:46;;;;;;;2.90;1.77;;;;;;;16.11;30.20;93210.44;5049887;28;20049;-80
2021/04/01 12:10:14;;;;;;;4.55;2.17;;;;;;;15.72;29.92;93208.69;5049057;28;20488;-80
2021/04/01 12:12:41;;;;;;;8.23;2.22;;;;;;;15.75;31.07;93198.63;5049413;28;20408;-80
2021/04/01 12:15:08;;;;;;;2.53;1.40;;;;;;;16.12;32.67;93194.63;5049367;28;20126;-80
2021/04/01 12:17:39;;;;;;;5.15;1.98;;;;;;;15.91;30.52;93191.03;5049154;28;20564;-80
2021/04/01 12:20:10;;;;;;;4.07;2.20;;;;;;;16.07;30.15;93179.06;5049318;28;20045;-78
2021/04/01 12:22:38;;;;;;;2.85;1.58;;;;;;;16.32;30.70;93184.72;5049013;28;20060;-80
2021/04/01 12:25:09;;;;;;;3.35;2.38;;;;;;;16.01;29.11;93180.03;5049218;28;20044;-81
2021/04/01 12:27:36;;;;;;;4.25;1.88;;;;;;;15.96;27.28;93160.03;5049231;28;20051;-80
2021/04/01 12:30:04;;;;;;;3.22;1.80;;;;;;;15.95;28.10;93176.59;5050462;28;20052;-80
2021/04/01 12:32:33;;;;;;;2.67;1.63;;;;;;;15.93;28.67;93165.72;5065625;28;20060;-79
2021/04/01 12:35:11;;;;;;;6.13;2.95;;;;;;;15.93;29.07;93165.72;5068746;28;20049;-80
2021/04/01 12:37:39;;;;;;;4.65;2.25;;;;;;;16.12;29.20;93152.41;5068261;28;20048;-79
2021/04/01 12:40:20;;;;;;;4.13;1.85;;;;;;;16.44;28.11;93172.41;5068897;28;20408;-80
2021/04/01 12:42:47;;;;;;;2.38;1.35;;;;;;;16.22;28.15;93168.06;5072807;28;20053;-80